Ottumwa Regional Airport
KOTM : rendu visible

Aérodrome :











RETROUVEZ-NOUS SUR...

 
LOGIN :

S'inscrire | Disclaimer

   EN    FR    IT 

 









Légende :    VFR   VFR Marginal   IFR   IFR Intensif   IFR Très Intensif
Visi : 
Plafond : 
>= 8 km
>= 3000ft
5 à 8 km
1000 à 3000 ft
1500m à 5 km
500 à 1000 ft
800 à 1500m
200 à 500 ft
< 800m
< 200 ft
Symboles :   Orages  Brouillard  Fortes neiges  Fortes précipitations  Vent > 20 kt






- Altitude de l'aérodrome : 845 ft
- Code IATA : OTM


KOTM - Ottumwa Regional

DERNIER METAR :
  • 190653Z AUTO 31014G24KT 10SM CLR M17/M22 A3032 RMK AO2 PK WND 31026/0601 SLP286 T11721222

METARs EXPIRÉS :
  • 190553Z AUTO 30020G26KT 10SM CLR M17/M22 A3030 RMK AO2 PK WND 31031/0459 SLP281 T11721222 11133 21172 400111172 51011
  • 190453Z AUTO 30020G30KT 10SM CLR M17/M22 A3029 RMK AO2 PK WND 30036/0440 SLP275 T11671222
  • 190353Z AUTO 31016G27KT 10SM CLR M16/M22 A3029 RMK AO2 PK WND 30034/0309 SLP275 T11611217

TAF KOTM
Valide du 19 à 06h jusqu'au 20 à 06h UTC


190530Z 1906/2006 31015G25KT P6SM SKC
FM192300 31008KT P6SM SKC



MET'MAP, la Météo Aéronautique d'un coup d'oeil ! - Copyright ORBIFLY Décembre 2007 - Disclaimer

ORBIFLY MET'MAP TEAM :

Programmation & Développement : Alexandra Zaïnal
Sur une idée originale de : Baudouin d'Aumeries
Assistance à la programmation : Marc-Olivier Méhu
Soutien technique & logistique : Manuel Goepfert

Contact : metmap@orbifly.com




SOURCES & CREDITS :

   NOAA       Earth
Advisory